臺北飛航情報區 - 掃描席(區管/近場)

SPECI RCTP 011545Z 05020KT 9999 FEW006 BKN008 BKN018 18/17 Q1021 WS ALL RWY NOSIG RMK A3015=

站台狀態:Online
最後更新:2022-12-01 23:30:02